Time;durP1;ratioP1;P1;durP2;ratioP2;P2;SDS_P1;SDS_P2;PMS_P1;PMS_P2;Temp;Humidity;BMP_temperature;BMP_pressure;BME280_temperature;BME280_humidity;BME280_pressure;Samples;Min_cycle;Max_cycle;Signal;HPM_P1;HPM_P2
2023/02/05 00:00:50;;;;;;;;;;;;;;;28.25;60.73;100920.22;5070353;27;66638;-37
2023/02/05 00:03:20;;;;;;;;;;;;;;;28.31;60.87;100924.84;5094450;27;70502;-37
2023/02/05 00:05:50;;;;;;;;;;;;;;;28.34;61.59;100921.72;5084274;27;65860;-36
2023/02/05 00:08:21;;;;;;;;;;;;;;;28.38;61.46;100930.25;5096081;27;70642;-37
2023/02/05 00:10:51;;;;;;;;;;;;;;;28.40;62.07;100931.72;5095091;27;66552;-37
2023/02/05 00:13:22;;;;;;;;;;;;;;;28.44;61.72;100932.97;5077630;27;69018;-36
2023/02/05 00:15:52;;;;;;;;;;;;;;;28.47;62.29;100940.69;5090368;27;66872;-43
2023/02/05 00:18:22;;;;;;;;;;;;;;;28.48;62.77;100939.66;5096473;27;70281;-37
2023/02/05 00:20:52;;;;;;;;;;;;;;;28.53;62.34;100944.47;5084798;27;65165;-37
2023/02/05 00:23:22;;;;;;;;;;;;;;;28.57;62.94;100955.66;5097158;27;70026;-38
2023/02/05 00:25:52;;;;;;;;;;;;;;;28.60;62.66;100953.38;5095056;27;66858;-39
2023/02/05 00:28:22;;;;;;;;;;;;;;;28.63;63.18;100962.94;5092961;27;70042;-39
2023/02/05 00:30:52;;;;;;;;;;;;;;;28.65;63.77;100968.97;5095698;27;66811;-39
2023/02/05 00:33:22;;;;;;;;;;;;;;;28.25;63.87;100904.03;5098326;27;69431;-38
2023/02/05 00:35:53;;;;;;;;;;;;;;;28.69;63.81;100975.63;5087151;27;65910;-41
2023/02/05 00:38:23;;;;;;;;;;;;;;;28.72;64.00;100983.31;5088848;27;70205;-38
2023/02/05 00:40:53;;;;;;;;;;;;;;;28.74;63.84;100983.94;5090415;27;67289;-39
2023/02/05 00:43:24;;;;;;;;;;;;;;;28.76;64.00;100990.00;5073240;27;70630;-40
2023/02/05 00:45:54;;;;;;;;;;;;;;;28.79;64.38;100997.69;5072725;27;66436;-38
2023/02/05 00:48:25;;;;;;;;;;;;;;;28.82;63.90;101002.66;5077470;27;69516;-35
2023/02/05 00:50:56;;;;;;;;;;;;;;;28.72;63.75;101007.59;5093516;27;66646;-37
2023/02/05 00:53:29;;;;;;;;;;;;;;;28.63;63.27;101009.66;5099417;27;63680;-40
2023/02/05 00:55:59;;;;;;;;;;;;;;;28.58;63.38;101014.81;5096401;27;65844;-36
2023/02/05 00:58:30;;;;;;;;;;;;;;;28.55;64.17;101017.09;5090664;27;69811;-36
2023/02/05 01:01:01;;;;;;;;;;;;;;;28.51;63.82;101020.22;5081854;27;66833;-38
2023/02/05 01:03:32;;;;;;;;;;;;;;;28.51;64.08;101017.50;5098543;27;69880;-37
2023/02/05 01:06:04;;;;;;;;;;;;;;;28.50;62.98;101023.94;5091934;27;65552;-37
2023/02/05 01:08:34;;;;;;;;;;;;;;;28.60;63.71;101030.84;5079958;27;70597;-39
2023/02/05 01:11:09;;;;;;;;;;;;;;;28.67;63.38;101026.31;5095424;27;65188;-41
2023/02/05 01:13:39;;;;;;;;;;;;;;;28.74;64.09;101036.06;5090151;27;70406;-38
2023/02/05 01:16:10;;;;;;;;;;;;;;;28.79;64.27;101034.66;5093486;27;65495;-40
2023/02/05 01:18:41;;;;;;;;;;;;;;;28.87;63.93;101035.28;5074915;27;70246;-41
2023/02/05 01:21:11;;;;;;;;;;;;;;;28.91;64.17;101041.94;5091095;27;66608;-41
2023/02/05 01:23:41;;;;;;;;;;;;;;;28.98;64.47;101043.84;5059852;27;70395;-39
2023/02/05 01:26:12;;;;;;;;;;;;;;;29.01;64.32;101033.47;5074586;27;66001;-39
2023/02/05 01:28:43;;;;;;;;;;;;;;;29.05;64.07;101042.00;5078912;27;68993;-38
2023/02/05 01:31:13;;;;;;;;;;;;;;;29.10;64.14;101042.25;5072300;27;66493;-41
2023/02/05 01:33:43;;;;;;;;;;;;;;;29.12;64.10;101049.09;5095955;27;70765;-36
2023/02/05 01:36:14;;;;;;;;;;;;;;;29.15;64.05;101045.16;5071447;27;66835;-38
2023/02/05 01:38:44;;;;;;;;;;;;;;;29.09;62.02;101046.81;5057648;27;70399;-39
2023/02/05 01:41:14;;;;;;;;;;;;;;;29.04;61.82;101043.06;5094216;27;66159;-37
2023/02/05 01:44:05;;;;;;;;;;;;;;;29.05;61.26;101044.72;5075423;27;70187;-36
2023/02/05 01:46:41;;;;;;;;;;;;;;;29.05;61.26;101048.25;5064216;27;66943;-36
2023/02/05 01:49:21;;;;;;;;;;;;;;;29.09;60.94;101045.97;5094544;27;70045;-36
2023/02/05 01:51:52;;;;;;;;;;;;;;;29.06;61.25;101046.38;5088778;27;65734;-36
2023/02/05 01:54:24;;;;;;;;;;;;;;;29.10;60.91;101053.03;5072868;27;68978;-38
2023/02/05 01:56:58;;;;;;;;;;;;;;;29.07;60.10;101045.34;5093768;27;65810;-38
2023/02/05 01:59:31;;;;;;;;;;;;;;;29.11;59.82;101043.88;5076777;27;69883;-36
2023/02/05 02:02:05;;;;;;;;;;;;;;;29.14;60.13;101044.34;5079852;27;65330;-34
2023/02/05 02:04:43;;;;;;;;;;;;;;;29.16;60.79;101042.25;5075314;27;70095;-36
2023/02/05 02:07:16;;;;;;;;;;;;;;;29.16;60.61;101044.13;5091053;27;66652;-38
2023/02/05 02:09:48;;;;;;;;;;;;;;;29.23;60.13;101055.78;5077821;27;70732;-37
2023/02/05 02:12:25;;;;;;;;;;;;;;;29.28;60.14;101056.00;5086336;27;65462;-38
2023/02/05 02:14:57;;;;;;;;;;;;;;;29.29;59.85;101054.94;5071477;27;70338;-37
2023/02/05 02:17:28;;;;;;;;;;;;;;;29.29;59.89;101057.66;5091619;27;65488;-37
2023/02/05 02:20:02;;;;;;;;;;;;;;;29.36;60.37;101053.09;5061178;27;68908;-38
2023/02/05 02:22:48;;;;;;;;;;;;;;;29.13;60.06;101012.13;5093803;27;66846;-38
2023/02/05 02:25:24;;;;;;;;;;;;;;;29.37;60.16;101053.94;5075905;27;70301;-37
2023/02/05 02:27:59;;;;;;;;;;;;;;;29.39;59.45;101052.69;5097619;27;66337;-37
2023/02/05 02:30:31;;;;;;;;;;;;;;;29.41;59.23;101049.75;5090163;27;70608;-36
2023/02/05 02:33:05;;;;;;;;;;;;;;;29.45;59.16;101051.03;5094202;27;65311;-38
2023/02/05 02:35:41;;;;;;;;;;;;;;;29.48;59.17;101052.50;5094454;27;70018;-36
2023/02/05 02:38:12;;;;;;;;;;;;;;;29.50;59.01;101053.91;5078056;27;66778;-41
2023/02/05 02:40:49;;;;;;;;;;;;;;;29.57;59.17;101051.25;5077049;27;69986;-40
2023/02/05 02:43:24;;;;;;;;;;;;;;;29.58;60.18;101050.19;5097951;27;66572;-38
2023/02/05 02:45:59;;;;;;;;;;;;;;;29.63;60.57;101053.13;5057528;27;67808;-39
2023/02/05 02:48:30;;;;;;;;;;;;;;;29.65;60.62;101048.38;5074834;27;66610;-40
2023/02/05 02:51:01;;;;;;;;;;;;;;;29.69;60.99;101046.91;5077491;27;70134;-41
2023/02/05 02:53:37;;;;;;;;;;;;;;;29.70;60.04;101048.56;5092996;27;66407;-40
2023/02/05 02:56:10;;;;;;;;;;;;;;;29.71;60.22;101044.00;5090834;27;69400;-41
2023/02/05 02:58:44;;;;;;;;;;;;;;;29.74;60.28;101043.56;5079750;27;66584;-38
2023/02/05 03:01:18;;;;;;;;;;;;;;;29.77;60.08;101046.69;5093424;27;69793;-39
2023/02/05 03:03:51;;;;;;;;;;;;;;;29.79;60.00;101041.91;5096873;27;66720;-37
2023/02/05 03:06:22;;;;;;;;;;;;;;;29.83;59.72;101037.72;5091886;27;69171;-38
2023/02/05 03:08:59;;;;;;;;;;;;;;;29.89;59.55;101035.22;5073854;27;66166;-37
2023/02/05 03:11:29;;;;;;;;;;;;;;;29.92;59.33;101024.00;5095085;27;69228;-37
2023/02/05 03:14:00;;;;;;;;;;;;;;;29.96;59.38;101017.13;5076267;27;66671;-36
2023/02/05 03:16:36;;;;;;;;;;;;;;;30.00;59.08;101015.66;5080805;27;69972;-36
2023/02/05 03:19:08;;;;;;;;;;;;;;;30.02;58.45;101014.41;5046219;27;67074;-37
2023/02/05 03:21:44;;;;;;;;;;;;;;;30.05;58.89;101015.84;5076323;27;69716;-40
2023/02/05 03:24:14;;;;;;;;;;;;;;;30.06;59.55;101014.81;5093493;27;66802;-38
2023/02/05 03:26:45;;;;;;;;;;;;;;;30.08;59.17;101018.13;5099401;27;70215;-38
2023/02/05 03:29:28;;;;;;;;;;;;;;;30.11;59.39;101015.00;5074529;27;67003;-40
2023/02/05 03:32:06;;;;;;;;;;;;;;;30.16;58.82;101004.38;5074391;27;70894;-38
2023/02/05 03:34:36;;;;;;;;;;;;;;;30.21;57.94;101001.06;5093594;27;66146;-38
2023/02/05 03:37:14;;;;;;;;;;;;;;;30.22;58.21;100992.72;5094451;27;69729;-39
2023/02/05 03:39:44;;;;;;;;;;;;;;;30.23;58.39;100988.19;5097149;27;65897;-40
2023/02/05 03:42:21;;;;;;;;;;;;;;;30.26;58.17;100991.28;5079462;27;71162;-39
2023/02/05 03:45:01;;;;;;;;;;;;;;;30.30;57.70;100988.16;5079038;27;65571;-37
2023/02/05 03:47:55;;;;;;;;;;;;;;;30.32;57.71;100986.06;5096528;27;69417;-39
2023/02/05 03:50:26;;;;;;;;;;;;;;;30.34;57.49;100973.13;5051968;27;66463;-39
2023/02/05 03:53:14;;;;;;;;;;;;;;;30.40;56.26;100980.41;5080992;27;70170;-40
2023/02/05 03:55:59;;;;;;;;;;;;;;;30.44;55.96;100982.44;5071927;27;66205;-39
2023/02/05 03:58:41;;;;;;;;;;;;;;;30.45;56.25;100965.19;5092135;27;69751;-40
2023/02/05 04:01:11;;;;;;;;;;;;;;;30.49;56.82;100954.75;5082452;27;65998;-40
2023/02/05 04:03:43;;;;;;;;;;;;;;;30.53;56.85;100961.38;5062931;27;70356;-39
2023/02/05 04:06:14;;;;;;;;;;;;;;;30.57;56.35;100949.09;5080747;27;65515;-41
2023/02/05 04:08:46;;;;;;;;;;;;;;;30.60;56.70;100950.53;5073544;27;69449;-42
2023/02/05 04:11:17;;;;;;;;;;;;;;;30.63;56.30;100941.97;5092345;27;66487;-43
2023/02/05 04:13:48;;;;;;;;;;;;;;;30.64;56.26;100952.56;5062289;27;68998;-41
2023/02/05 04:16:18;;;;;;;;;;;;;;;30.62;57.19;100938.44;5096244;27;66495;-39
2023/02/05 04:18:48;;;;;;;;;;;;;;;30.57;55.12;100935.56;5094219;27;70528;-39
2023/02/05 04:21:19;;;;;;;;;;;;;;;30.63;54.23;100934.69;5072710;27;65697;-40
2023/02/05 04:23:50;;;;;;;;;;;;;;;30.62;51.82;100938.44;5091827;27;70329;-39
2023/02/05 04:26:20;;;;;;;;;;;;;;;30.69;52.61;100927.56;5098912;27;65713;-44
2023/02/05 04:28:59;;;;;;;;;;;;;;;30.64;52.91;100922.78;5078638;27;70389;-41
2023/02/05 04:31:32;;;;;;;;;;;;;;;30.62;53.33;100924.91;5080243;27;67099;-38
2023/02/05 04:34:03;;;;;;;;;;;;;;;30.60;53.31;100920.75;5064034;27;70157;-41
2023/02/05 04:36:33;;;;;;;;;;;;;;;30.59;54.24;100911.81;5096660;27;65619;-41
2023/02/05 04:39:03;;;;;;;;;;;;;;;30.59;53.83;100917.22;5075794;27;69753;-40
2023/02/05 04:41:33;;;;;;;;;;;;;;;30.58;53.87;100909.31;5080895;27;65216;-39
2023/02/05 04:44:05;;;;;;;;;;;;;;;30.57;54.24;100905.78;5095846;27;70377;-39
2023/02/05 04:46:35;;;;;;;;;;;;;;;30.57;53.95;100891.41;5093280;27;66263;-39
2023/02/05 04:49:05;;;;;;;;;;;;;;;30.56;53.75;100895.16;5089652;27;69290;-39
2023/02/05 04:51:35;;;;;;;;;;;;;;;30.56;54.22;100901.38;5087344;27;66507;-40
2023/02/05 04:54:05;;;;;;;;;;;;;;;30.57;53.98;100892.22;5095675;27;69992;-43
2023/02/05 04:56:35;;;;;;;;;;;;;;;30.55;53.52;100899.75;5091859;27;65908;-42
2023/02/05 04:59:06;;;;;;;;;;;;;;;30.57;53.88;100891.41;5093026;27;70375;-40
2023/02/05 05:01:36;;;;;;;;;;;;;;;30.57;53.52;100881.41;5092950;27;65612;-41
2023/02/05 05:04:07;;;;;;;;;;;;;;;30.58;53.29;100888.47;5088860;27;69777;-38
2023/02/05 05:06:38;;;;;;;;;;;;;;;30.57;53.25;100876.00;5090580;27;65835;-41
2023/02/05 05:09:08;;;;;;;;;;;;;;;30.59;52.85;100867.63;5088253;27;70542;-42
2023/02/05 05:11:38;;;;;;;;;;;;;;;30.60;52.67;100864.72;5091192;27;67108;-42
2023/02/05 05:14:09;;;;;;;;;;;;;;;30.60;52.33;100864.72;5056513;27;69891;-41
2023/02/05 05:16:39;;;;;;;;;;;;;;;30.61;52.49;100855.53;5076826;27;67258;-39
2023/02/05 05:19:09;;;;;;;;;;;;;;;30.64;53.44;100849.69;5071820;27;69914;-39
2023/02/05 05:21:39;;;;;;;;;;;;;;;30.68;53.64;100850.09;5086639;27;66084;-41
2023/02/05 05:24:09;;;;;;;;;;;;;;;30.68;54.02;100833.84;5059478;27;70310;-38
2023/02/05 05:26:42;;;;;;;;;;;;;;;30.69;53.73;100830.91;5094661;27;65690;-38
2023/02/05 05:29:13;;;;;;;;;;;;;;;30.72;53.52;100819.63;5092422;27;69147;-42
2023/02/05 05:31:43;;;;;;;;;;;;;;;30.75;53.71;100817.53;5090716;27;66426;-38
2023/02/05 05:34:13;;;;;;;;;;;;;;;30.77;53.92;100810.84;5093503;27;70413;-43
2023/02/05 05:36:46;;;;;;;;;;;;;;;30.79;53.49;100802.53;5094107;27;66519;-40
2023/02/05 05:44:52;;;;;;;;;;;;;;;30.88;52.40;100785.78;5092546;27;69393;-41
2023/02/05 05:47:23;;;;;;;;;;;;;;;30.81;50.06;100781.47;5093497;27;67052;-40
2023/02/05 05:49:53;;;;;;;;;;;;;;;30.80;49.35;100774.41;5095956;27;70035;-38
2023/02/05 05:52:23;;;;;;;;;;;;;;;30.70;48.80;100770.31;5088477;27;67201;-41
2023/02/05 05:54:53;;;;;;;;;;;;;;;30.58;47.08;100766.66;5092807;27;69771;-42
2023/02/05 05:57:24;;;;;;;;;;;;;;;30.48;45.95;100756.31;5090407;27;66368;-43
2023/02/05 05:59:55;;;;;;;;;;;;;;;30.35;44.78;100752.91;5089093;27;69865;-40
2023/02/05 06:02:25;;;;;;;;;;;;;;;30.24;44.65;100744.44;5085730;27;65505;-43
2023/02/05 06:04:55;;;;;;;;;;;;;;;30.15;44.44;100736.78;5094670;27;68956;-42
2023/02/05 06:07:25;;;;;;;;;;;;;;;30.06;44.09;100733.47;5094713;27;65490;-42
2023/02/05 06:09:55;;;;;;;;;;;;;;;29.98;42.60;100731.06;5098791;27;70416;-41
2023/02/05 06:12:26;;;;;;;;;;;;;;;29.92;42.72;100721.09;5097788;27;65494;-41
2023/02/05 06:14:56;;;;;;;;;;;;;;;29.79;42.58;100717.44;5095358;27;70595;-40
2023/02/05 06:17:26;;;;;;;;;;;;;;;29.75;41.98;100710.78;5096783;27;65970;-42
2023/02/05 06:19:56;;;;;;;;;;;;;;;29.72;41.49;100703.13;5095536;27;70755;-44
2023/02/05 06:22:27;;;;;;;;;;;;;;;29.66;41.42;100706.69;5098054;27;65344;-39
2023/02/05 06:24:57;;;;;;;;;;;;;;;29.65;41.35;100699.63;5097375;27;69623;-40
2023/02/05 06:27:27;;;;;;;;;;;;;;;29.62;41.42;100691.94;5086923;27;67243;-40
2023/02/05 06:29:57;;;;;;;;;;;;;;;29.58;41.41;100693.41;5096789;27;68840;-40
2023/02/05 06:32:27;;;;;;;;;;;;;;;29.54;40.54;100676.78;5090824;27;66584;-42
2023/02/05 06:34:58;;;;;;;;;;;;;;;29.56;40.52;100673.84;5098742;27;70641;-40
2023/02/05 06:37:29;;;;;;;;;;;;;;;29.57;40.38;100672.81;5099354;27;66599;-41
2023/02/05 06:40:16;;;;;;;;;;;;;;;29.55;40.42;100669.50;5083645;27;70459;-39
2023/02/05 06:42:48;;;;;;;;;;;;;;;29.53;40.24;100672.44;5099000;27;66848;-39
2023/02/05 06:45:18;;;;;;;;;;;;;;;29.53;39.82;100658.06;5100487;27;70170;-41
2023/02/05 06:47:51;;;;;;;;;;;;;;;29.55;40.09;100669.50;5098512;27;66629;-42
2023/02/05 06:50:21;;;;;;;;;;;;;;;29.55;40.30;100661.41;5076389;27;70056;-41
2023/02/05 06:52:52;;;;;;;;;;;;;;;29.57;39.92;100665.53;5097376;27;65413;-39
2023/02/05 06:55:22;;;;;;;;;;;;;;;29.58;39.72;100661.78;5093286;27;70780;-40
2023/02/05 06:57:52;;;;;;;;;;;;;;;29.50;39.90;100653.94;5092103;27;65516;-41
2023/02/05 07:00:23;;;;;;;;;;;;;;;29.51;39.84;100649.38;5089468;27;70276;-42
2023/02/05 07:02:53;;;;;;;;;;;;;;;29.47;39.65;100650.84;5064543;27;66003;-39
2023/02/05 07:05:24;;;;;;;;;;;;;;;29.46;39.18;100639.19;5089909;27;71155;-40
2023/02/05 07:07:54;;;;;;;;;;;;;;;29.49;39.64;100640.66;5092692;27;67967;-42
2023/02/05 07:10:24;;;;;;;;;;;;;;;29.49;39.04;100643.34;5084890;27;69306;-39
2023/02/05 07:12:54;;;;;;;;;;;;;;;29.46;39.06;100641.91;5091835;27;65786;-39
2023/02/05 07:15:25;;;;;;;;;;;;;;;29.48;38.95;100630.91;5091658;27;70209;-40
2023/02/05 07:17:56;;;;;;;;;;;;;;;29.48;39.36;100633.59;5095086;27;66113;-39
2023/02/05 07:20:26;;;;;;;;;;;;;;;29.47;38.88;100626.50;5077729;27;69097;-40
2023/02/05 07:22:56;;;;;;;;;;;;;;;29.48;38.42;100630.91;5097667;27;66698;-43
2023/02/05 07:25:26;;;;;;;;;;;;;;;29.49;38.27;100616.31;5076207;27;69054;-45
2023/02/05 07:27:57;;;;;;;;;;;;;;;29.51;39.04;100625.06;5096932;27;65774;-40
2023/02/05 07:30:27;;;;;;;;;;;;;;;29.51;39.07;100622.34;5078205;27;69299;-39
2023/02/05 07:32:59;;;;;;;;;;;;;;;29.51;38.47;100614.25;5099306;27;66642;-41
2023/02/05 07:35:30;;;;;;;;;;;;;;;29.49;38.86;100608.22;5083530;27;70624;-41
2023/02/05 07:38:01;;;;;;;;;;;;;;;29.54;38.73;100611.94;5096478;27;65824;-42
2023/02/05 07:40:31;;;;;;;;;;;;;;;29.54;38.96;100611.94;5079720;27;70367;-41
2023/02/05 07:43:02;;;;;;;;;;;;;;;29.58;38.66;100612.31;5093169;27;66162;-42
2023/02/05 07:45:32;;;;;;;;;;;;;;;29.60;38.48;100612.94;5092476;27;69000;-43
2023/02/05 07:48:02;;;;;;;;;;;;;;;29.62;38.58;100618.94;5091691;27;67334;-43
2023/02/05 07:50:33;;;;;;;;;;;;;;;29.60;38.95;100611.03;5092363;27;69901;-39
2023/02/05 07:53:03;;;;;;;;;;;;;;;29.66;39.05;100614.78;5091988;27;66951;-37
2023/02/05 07:55:34;;;;;;;;;;;;;;;29.63;38.38;100599.00;5092790;27;70216;-44
2023/02/05 07:58:05;;;;;;;;;;;;;;;29.61;38.78;100601.91;5077729;27;65558;-39
2023/02/05 08:00:35;;;;;;;;;;;;;;;29.65;38.14;100602.31;5094650;27;69026;-42
2023/02/05 08:03:06;;;;;;;;;;;;;;;29.71;38.86;100601.44;5075107;27;65687;-39
2023/02/05 08:05:36;;;;;;;;;;;;;;;29.96;40.73;100597.94;5063384;27;70087;-39
2023/02/05 08:08:07;;;;;;;;;;;;;;;30.19;42.18;100602.72;5100505;27;66632;-39
2023/02/05 08:10:37;;;;;;;;;;;;;;;30.23;46.43;100604.78;5091195;27;69251;-41
2023/02/05 08:13:07;;;;;;;;;;;;;;;30.33;48.33;100603.44;5078800;27;66672;-40
2023/02/05 08:15:38;;;;;;;;;;;;;;;30.42;49.58;100608.38;5080104;27;69933;-40
2023/02/05 08:18:08;;;;;;;;;;;;;;;30.55;49.59;100607.38;5091650;27;66619;-40
2023/02/05 08:20:38;;;;;;;;;;;;;;;30.64;50.39;100606.03;5096810;27;69937;-39
2023/02/05 08:23:08;;;;;;;;;;;;;;;30.73;50.32;100610.09;5099447;27;65988;-41
2023/02/05 08:25:39;;;;;;;;;;;;;;;30.80;50.19;100606.50;5098292;27;69932;-41
2023/02/05 08:28:09;;;;;;;;;;;;;;;30.99;49.83;100610.88;5092003;27;67103;-43
2023/02/05 08:30:40;;;;;;;;;;;;;;;31.20;48.98;100609.53;5095542;27;70145;-42
2023/02/05 08:33:10;;;;;;;;;;;;;;;31.36;49.04;100613.53;5092507;27;66420;-39
2023/02/05 08:35:40;;;;;;;;;;;;;;;31.49;48.51;100605.22;5096343;27;70452;-40
2023/02/05 08:38:10;;;;;;;;;;;;;;;31.64;48.05;100606.66;5074276;27;66588;-44
2023/02/05 08:40:41;;;;;;;;;;;;;;;31.75;48.08;100611.28;5090840;27;70606;-40
2023/02/05 08:43:11;;;;;;;;;;;;;;;31.85;47.75;100614.25;5089634;27;66898;-40
2023/02/05 08:45:44;;;;;;;;;;;;;;;31.96;47.61;100623.50;5093543;27;70360;-43
2023/02/05 08:48:14;;;;;;;;;;;;;;;32.04;47.50;100615.84;5094056;27;66893;-45
2023/02/05 08:50:46;;;;;;;;;;;;;;;32.13;47.38;100612.78;5091118;27;69829;-40
2023/02/05 08:53:16;;;;;;;;;;;;;;;32.21;47.29;100615.16;5078133;27;66464;-40
2023/02/05 08:55:53;;;;;;;;;;;;;;;32.27;47.16;100614.22;5095385;27;69576;-41
2023/02/05 08:58:23;;;;;;;;;;;;;;;32.33;47.25;100613.25;5096213;27;65372;-41
2023/02/05 09:01:04;;;;;;;;;;;;;;;32.39;47.08;100616.91;5098390;27;70282;-40
2023/02/05 09:03:34;;;;;;;;;;;;;;;32.45;47.29;100615.97;5092901;27;66302;-38
2023/02/05 09:06:06;;;;;;;;;;;;;;;32.52;47.44;100621.31;5077881;27;69812;-39
2023/02/05 09:08:36;;;;;;;;;;;;;;;32.57;47.10;100618.69;5093521;27;66561;-41
2023/02/05 09:11:07;;;;;;;;;;;;;;;32.61;47.34;100619.88;5092762;27;69556;-41
2023/02/05 09:13:38;;;;;;;;;;;;;;;32.65;47.38;100621.88;5097482;27;66310;-44
2023/02/05 09:16:10;;;;;;;;;;;;;;;32.70;47.39;100626.59;5094370;27;70449;-39
2023/02/05 09:18:40;;;;;;;;;;;;;;;32.75;47.68;100625.88;5094533;27;66854;-40
2023/02/05 09:21:10;;;;;;;;;;;;;;;32.81;47.87;100624.91;5093094;27;69651;-40
2023/02/05 09:23:41;;;;;;;;;;;;;;;32.84;47.91;100619.00;5098962;27;65231;-41
2023/02/05 09:26:11;;;;;;;;;;;;;;;32.87;47.76;100622.06;5072684;27;70198;-41
2023/02/05 09:28:41;;;;;;;;;;;;;;;32.90;47.83;100624.31;5089746;27;65322;-43
2023/02/05 09:31:13;;;;;;;;;;;;;;;32.94;47.80;100625.47;5094407;27;69985;-43
2023/02/05 09:33:44;;;;;;;;;;;;;;;32.98;47.75;100624.97;5095764;27;66017;-42
2023/02/05 09:36:19;;;;;;;;;;;;;;;33.01;47.90;100624.53;5094820;27;71934;-38
2023/02/05 09:38:52;;;;;;;;;;;;;;;33.04;48.05;100626.75;5088872;27;66483;-41
2023/02/05 09:41:58;;;;;;;;;;;;;;;33.07;48.12;100629.00;5079422;27;70150;-41
2023/02/05 09:44:37;;;;;;;;;;;;;;;33.09;48.12;100638.56;5094524;27;67317;-41
2023/02/05 09:47:15;;;;;;;;;;;;;;;33.12;48.04;100637.25;5091388;27;70581;-45
2023/02/05 09:49:54;;;;;;;;;;;;;;;33.14;47.86;100637.84;5080920;27;66210;-40
2023/02/05 09:52:36;;;;;;;;;;;;;;;33.15;48.39;100643.06;5094095;27;70923;-42
2023/02/05 09:55:16;;;;;;;;;;;;;;;33.18;48.42;100640.91;5095458;27;65178;-39
2023/02/05 09:57:47;;;;;;;;;;;;;;;33.18;48.19;100633.56;5096880;27;70745;-40
2023/02/05 10:00:23;;;;;;;;;;;;;;;33.21;48.27;100640.41;5098572;27;66515;-42
2023/02/05 10:02:56;;;;;;;;;;;;;;;33.21;47.86;100633.09;5093946;27;70626;-41
2023/02/05 10:05:29;;;;;;;;;;;;;;;33.22;48.30;100637.47;5089107;27;66532;-43
2023/02/05 10:08:05;;;;;;;;;;;;;;;33.23;49.68;100641.81;5093921;27;71943;-41
2023/02/05 10:11:01;;;;;;;;;;;;;;;33.25;49.24;100639.69;5091424;27;66545;-43
2023/02/05 10:13:34;;;;;;;;;;;;;;;33.26;48.84;100638.63;5091031;27;69428;-43
2023/02/05 10:16:11;;;;;;;;;;;;;;;33.25;48.95;100636.97;5074905;27;66074;-43
2023/02/05 10:18:44;;;;;;;;;;;;;;;33.27;48.76;100634.03;5075179;27;68983;-43
2023/02/05 10:21:33;;;;;;;;;;;;;;;33.25;48.71;100645.13;5092748;27;65526;-43
2023/02/05 10:24:12;;;;;;;;;;;;;;;33.26;48.63;100648.66;5093086;27;71007;-43
2023/02/05 10:26:53;;;;;;;;;;;;;;;33.26;48.56;100644.06;5090238;27;66840;-41
2023/02/05 10:29:41;;;;;;;;;;;;;;;33.25;48.46;100655.19;5094197;27;69706;-44
2023/02/05 10:32:12;;;;;;;;;;;;;;;33.24;48.59;100657.09;5096313;27;66736;-40
2023/02/05 10:34:42;;;;;;;;;;;;;;;33.25;48.44;100652.47;5096097;27;70489;-40
2023/02/05 10:37:17;;;;;;;;;;;;;;;33.22;48.71;100653.78;5089375;27;66405;-41
2023/02/05 10:39:48;;;;;;;;;;;;;;;33.22;48.48;100653.78;5092948;27;69643;-42
2023/02/05 10:42:27;;;;;;;;;;;;;;;33.21;48.33;100651.28;5091510;27;65999;-41
2023/02/05 10:45:03;;;;;;;;;;;;;;;33.19;48.42;100648.00;5093880;27;70154;-40
2023/02/05 10:47:53;;;;;;;;;;;;;;;33.20;48.56;100641.50;5093691;27;66198;-40
2023/02/05 10:50:38;;;;;;;;;;;;;;;33.18;48.62;100647.16;5086797;27;70634;-40
2023/02/05 10:53:08;;;;;;;;;;;;;;;33.16;48.96;100643.88;5075128;27;66323;-41
2023/02/05 10:55:38;;;;;;;;;;;;;;;33.15;48.98;100653.06;5081663;27;70189;-40
2023/02/05 10:58:35;;;;;;;;;;;;;;;33.11;49.72;100650.03;5083043;27;66767;-41
2023/02/05 11:01:07;;;;;;;;;;;;;;;33.09;49.85;100644.00;5059725;27;69475;-42
2023/02/05 11:03:39;;;;;;;;;;;;;;;33.09;49.90;100652.16;5095961;27;66075;-39
2023/02/05 11:06:10;;;;;;;;;;;;;;;33.08;50.06;100653.22;5087375;27;69750;-39
2023/02/05 11:08:42;;;;;;;;;;;;;;;33.06;50.08;100654.53;5096673;27;64196;-41
2023/02/05 11:11:19;;;;;;;;;;;;;;;33.03;50.10;100661.28;5098507;27;70301;-44
2023/02/05 11:13:51;;;;;;;;;;;;;;;33.00;50.06;100660.94;5091951;27;66713;-40
2023/02/05 11:16:22;;;;;;;;;;;;;;;32.98;50.21;100663.03;5093188;27;70634;-40
2023/02/05 11:18:58;;;;;;;;;;;;;;;32.94;50.27;100668.94;5089453;27;65601;-39
2023/02/05 11:21:46;;;;;;;;;;;;;;;32.92;50.27;100671.06;5068191;27;69594;-37
2023/02/05 11:24:47;;;;;;;;;;;;;;;32.69;51.26;100665.69;5087954;27;66806;-38
2023/02/05 11:27:25;;;;;;;;;;;;;;;32.42;52.03;100676.97;5077951;27;70236;-38
2023/02/05 11:29:58;;;;;;;;;;;;;;;32.29;52.87;100685.38;5095488;27;66454;-40
2023/02/05 11:32:34;;;;;;;;;;;;;;;32.24;54.22;100687.97;5099030;27;69716;-38
2023/02/05 11:35:20;;;;;;;;;;;;;;;32.18;55.36;100686.16;5089403;27;66636;-39
2023/02/05 11:38:08;;;;;;;;;;;;;;;32.14;56.70;100695.84;5090037;27;70332;-41
2023/02/05 11:40:38;;;;;;;;;;;;;;;32.07;57.65;100689.69;5098929;27;67035;-40
2023/02/05 11:43:22;;;;;;;;;;;;;;;32.16;57.23;100688.31;5091348;27;70677;-38
2023/02/05 11:45:54;;;;;;;;;;;;;;;32.31;56.19;100691.38;5073352;27;66262;-40
2023/02/05 11:48:42;;;;;;;;;;;;;;;32.39;55.37;100677.47;5093062;27;69743;-39
2023/02/05 11:51:14;;;;;;;;;;;;;;;32.44;54.80;100696.59;5092228;27;65680;-40
2023/02/05 11:53:49;;;;;;;;;;;;;;;32.50;54.15;100700.28;5090907;27;70244;-38
2023/02/05 11:56:22;;;;;;;;;;;;;;;32.49;53.89;100694.03;5085560;27;65996;-39
2023/02/05 11:59:00;;;;;;;;;;;;;;;32.53;53.58;100696.25;5094108;27;70117;-39
2023/02/05 12:01:34;;;;;;;;;;;;;;;32.52;53.27;100697.34;5086164;27;66262;-43
2023/02/05 12:04:10;;;;;;;;;;;;;;;32.54;52.95;100695.19;5096363;27;70075;-42
2023/02/05 12:06:44;;;;;;;;;;;;;;;32.52;52.81;100703.59;5092793;27;66718;-40
2023/02/05 12:09:18;;;;;;;;;;;;;;;32.51;52.79;100706.53;5069635;27;69449;-39
2023/02/05 12:12:10;;;;;;;;;;;;;;;32.51;52.44;100712.78;5083086;27;66863;-42
2023/02/05 12:14:51;;;;;;;;;;;;;;;32.49;52.46;100721.19;5090429;27;70625;-38
2023/02/05 12:17:33;;;;;;;;;;;;;;;32.49;52.41;100721.19;5096367;27;66379;-38
2023/02/05 12:20:09;;;;;;;;;;;;;;;32.47;52.59;100723.28;5088885;27;70586;-38
2023/02/05 12:22:55;;;;;;;;;;;;;;;32.46;52.05;100728.97;5090349;27;66058;-38
2023/02/05 12:25:39;;;;;;;;;;;;;;;32.38;52.56;100738.25;5089415;27;69339;-38
2023/02/05 12:28:10;;;;;;;;;;;;;;;32.12;53.93;100742.19;5096341;27;66940;-39
2023/02/05 12:30:50;;;;;;;;;;;;;;;31.99;54.88;100748.66;5092586;27;70798;-41
2023/02/05 12:33:38;;;;;;;;;;;;;;;31.88;56.06;100741.28;5091107;27;66702;-38
2023/02/05 12:36:17;;;;;;;;;;;;;;;31.84;56.16;100753.63;5091835;27;70098;-39
2023/02/05 12:38:56;;;;;;;;;;;;;;;31.77;56.58;100761.06;5095534;27;66579;-38
2023/02/05 12:41:38;;;;;;;;;;;;;;;31.75;56.76;100763.16;5094626;27;69635;-37
2023/02/05 12:44:28;;;;;;;;;;;;;;;31.73;57.21;100767.97;5082553;27;67149;-38
2023/02/05 12:47:08;;;;;;;;;;;;;;;31.68;57.10;100770.53;5097003;27;70019;-39
2023/02/05 12:49:57;;;;;;;;;;;;;;;31.65;57.58;100774.56;5087982;27;66089;-38
2023/02/05 12:52:38;;;;;;;;;;;;;;;31.65;57.60;100773.72;5091071;27;70586;-41
2023/02/05 12:55:17;;;;;;;;;;;;;;;31.65;57.42;100779.13;5075570;27;66119;-42
2023/02/05 12:57:56;;;;;;;;;;;;;;;31.63;57.55;100779.38;5091519;27;70533;-40
2023/02/05 13:00:39;;;;;;;;;;;;;;;31.59;55.76;100792.56;5089047;27;66463;-42
2023/02/05 13:03:11;;;;;;;;;;;;;;;31.47;53.18;100794.38;5074326;27;68644;-39
2023/02/05 13:06:08;;;;;;;;;;;;;;;31.41;52.17;100789.03;5091563;27;66954;-42
2023/02/05 13:08:47;;;;;;;;;;;;;;;31.34;51.92;100794.47;5091477;27;70016;-41
2023/02/05 13:11:23;;;;;;;;;;;;;;;31.29;51.46;100797.06;5091199;27;66139;-41
2023/02/05 13:14:00;;;;;;;;;;;;;;;31.26;51.84;100808.31;5091131;27;70815;-40